SLSA/SBL METAR and TAF weather

Enter ICAO airport designator
Station Type Date Time Source
SLSA METAR 2021/09/24 23:00 UTC NOAA

SLSA 242300Z 12004KT 5000 FU NSC 30/20 Q1011


Station Type Date Time Source
SLSA Decoded METAR 2021/09/24 23:00 UTC NOAA

Santa Ana, Bolivia (SLSA) 13-46S 065-26W
Sep 24, 2021 - 07:00 PM EDT / 2021.09.24 2300 UTC
Wind: from the ESE (120 degrees) at 5 MPH (4 KT):0
Visibility: 3 mile(s):0
Weather: smoke
Temperature: 86 F (30 C)
Dew Point: 68 F (20 C)
Relative Humidity: 55%
Pressure (altimeter): 29.85 in. Hg (1011 hPa)
ob: SLSA 242300Z 12004KT 5000 FU NSC 30/20 Q1011
cycle: 23

Station Type Date Time Source
SLSA TAF 2009/01/07 11:00 UTC NOAA

METAR SLSA 071100Z 00000KT 9999 FEW020 BKN080 26/24 Q1009

Example: see airport list